createdAt,value
2022-11-17T00:00:58.261Z,988.03
2022-11-17T00:01:58.353Z,988.00
2022-11-17T00:02:58.248Z,988.00
2022-11-17T00:03:58.250Z,988.00
2022-11-17T00:04:58.241Z,987.98
2022-11-17T00:05:58.233Z,987.98
2022-11-17T00:06:58.260Z,987.95
2022-11-17T00:07:58.247Z,987.94
2022-11-17T00:08:58.184Z,987.93
2022-11-17T00:09:58.191Z,987.92
2022-11-17T00:10:58.174Z,987.92
2022-11-17T00:11:58.191Z,987.92
2022-11-17T00:12:58.144Z,987.89
2022-11-17T00:13:58.143Z,987.87
2022-11-17T00:14:58.140Z,987.86
2022-11-17T00:15:58.128Z,987.83
2022-11-17T00:16:58.186Z,987.82
2022-11-17T00:17:58.103Z,987.78
2022-11-17T00:18:58.081Z,987.77
2022-11-17T00:19:58.079Z,987.73
2022-11-17T00:20:58.079Z,987.74
2022-11-17T00:21:58.062Z,987.72
2022-11-17T00:22:58.119Z,987.71
2022-11-17T00:23:58.039Z,987.68
2022-11-17T00:24:58.033Z,987.66
2022-11-17T00:25:58.022Z,987.64
2022-11-17T00:26:57.997Z,987.63
2022-11-17T00:27:58.003Z,987.62
2022-11-17T00:28:57.994Z,987.58
2022-11-17T00:29:57.982Z,987.58
2022-11-17T00:30:57.974Z,987.57
2022-11-17T00:31:57.959Z,987.56
2022-11-17T00:32:57.932Z,987.53
2022-11-17T00:33:57.950Z,987.50
2022-11-17T00:34:57.939Z,987.47
2022-11-17T00:35:57.911Z,987.45
2022-11-17T00:36:57.896Z,987.44
2022-11-17T00:37:57.909Z,987.40
2022-11-17T00:38:57.878Z,987.40
2022-11-17T00:40:00.934Z,987.39
2022-11-17T00:40:57.879Z,987.35
2022-11-17T00:41:57.853Z,987.36
2022-11-17T00:42:57.827Z,987.33
2022-11-17T00:43:57.836Z,987.30
2022-11-17T00:44:57.810Z,987.28
2022-11-17T00:45:57.891Z,987.22
2022-11-17T00:46:57.852Z,987.23
2022-11-17T00:47:57.795Z,987.20
2022-11-17T00:48:57.775Z,987.20
2022-11-17T00:49:57.780Z,987.19
2022-11-17T00:50:57.749Z,987.18
2022-11-17T00:51:57.755Z,987.17
2022-11-17T00:52:57.756Z,987.17
2022-11-17T00:53:57.727Z,987.18
2022-11-17T00:54:57.749Z,987.15
2022-11-17T00:55:57.723Z,987.11
2022-11-17T00:56:57.698Z,987.11
2022-11-17T00:57:57.692Z,987.12
2022-11-17T00:58:57.701Z,987.10
2022-11-17T00:59:57.683Z,987.08
2022-11-17T01:00:57.644Z,987.06
2022-11-17T01:01:57.891Z,987.06
2022-11-17T01:02:57.626Z,987.03
2022-11-17T01:03:57.636Z,987.01
2022-11-17T01:04:57.622Z,986.96
2022-11-17T01:05:57.609Z,986.93
2022-11-17T01:06:57.686Z,986.92
2022-11-17T01:07:57.608Z,986.88
2022-11-17T01:08:57.565Z,986.87
2022-11-17T01:09:57.576Z,986.86
2022-11-17T01:10:57.556Z,986.81
2022-11-17T01:11:57.587Z,986.80
2022-11-17T01:12:57.518Z,986.78
2022-11-17T01:13:57.528Z,986.73
2022-11-17T01:14:57.505Z,986.73
2022-11-17T01:15:57.506Z,986.69
2022-11-17T01:16:57.740Z,986.66
2022-11-17T01:17:57.483Z,986.62
2022-11-17T01:18:57.463Z,986.60
2022-11-17T01:19:57.464Z,986.58
2022-11-17T01:20:57.438Z,986.56
2022-11-17T01:21:57.444Z,986.53
2022-11-17T01:22:57.433Z,986.53
2022-11-17T01:23:57.421Z,986.47
2022-11-17T01:24:57.417Z,986.46
2022-11-17T01:25:57.401Z,986.46
2022-11-17T01:26:57.380Z,986.47
2022-11-17T01:27:57.401Z,986.46
2022-11-17T01:28:57.373Z,986.43
2022-11-17T01:29:57.359Z,986.41
2022-11-17T01:30:57.334Z,986.39
2022-11-17T01:31:57.341Z,986.34
2022-11-17T01:32:57.312Z,986.34
2022-11-17T01:33:57.321Z,986.33
2022-11-17T01:34:57.321Z,986.31
2022-11-17T01:35:57.305Z,986.30
2022-11-17T01:36:57.275Z,986.26
2022-11-17T01:37:57.278Z,986.23
2022-11-17T01:38:57.257Z,986.18
2022-11-17T01:39:57.253Z,986.19
2022-11-17T01:40:57.257Z,986.15
2022-11-17T01:41:57.250Z,986.14
2022-11-17T01:42:57.214Z,986.10
2022-11-17T01:43:57.224Z,986.09
2022-11-17T01:44:57.188Z,986.06
2022-11-17T01:45:57.217Z,986.05
2022-11-17T01:47:00.845Z,986.04
2022-11-17T01:47:57.186Z,985.99
2022-11-17T01:48:57.149Z,985.90
2022-11-17T01:49:57.156Z,985.89
2022-11-17T01:50:57.134Z,985.86
2022-11-17T01:51:57.137Z,985.82
2022-11-17T01:52:57.147Z,985.80
2022-11-17T01:53:57.108Z,985.76
2022-11-17T01:54:57.104Z,985.71
2022-11-17T01:55:57.109Z,985.71
2022-11-17T01:56:57.069Z,985.74
2022-11-17T01:57:57.088Z,985.70
2022-11-17T01:58:57.081Z,985.69
2022-11-17T01:59:57.053Z,985.68
2022-11-17T02:00:57.032Z,985.67
2022-11-17T02:01:57.074Z,985.65
2022-11-17T02:02:57.011Z,985.64
2022-11-17T02:03:57.006Z,985.62
2022-11-17T02:04:57.016Z,985.59
2022-11-17T02:05:56.999Z,985.59
2022-11-17T02:06:57.019Z,985.60
2022-11-17T02:07:56.977Z,985.59
2022-11-17T02:08:56.947Z,985.57
2022-11-17T02:09:56.945Z,985.53
2022-11-17T02:10:56.964Z,985.52
2022-11-17T02:11:56.928Z,985.48
2022-11-17T02:12:56.902Z,985.48
2022-11-17T02:13:56.905Z,985.43
2022-11-17T02:14:56.889Z,985.40
2022-11-17T02:15:56.880Z,985.39
2022-11-17T02:16:58.296Z,985.35
2022-11-17T02:17:56.891Z,985.32
2022-11-17T02:18:56.839Z,985.33
2022-11-17T02:19:56.841Z,985.31
2022-11-17T02:20:56.815Z,985.29
2022-11-17T02:21:56.846Z,985.27
2022-11-17T02:22:56.813Z,985.26
2022-11-17T02:23:56.802Z,985.23
2022-11-17T02:24:56.786Z,985.19
2022-11-17T02:25:56.795Z,985.17
2022-11-17T02:26:56.775Z,985.17
2022-11-17T02:27:56.753Z,985.19
2022-11-17T02:28:56.759Z,985.16
2022-11-17T02:29:56.741Z,985.15
2022-11-17T02:30:56.723Z,985.14
2022-11-17T02:31:56.714Z,985.12
2022-11-17T02:32:56.694Z,985.09
2022-11-17T02:33:56.695Z,985.07
2022-11-17T02:34:56.776Z,985.05
2022-11-17T02:35:56.694Z,985.02
2022-11-17T02:36:56.650Z,985.05
2022-11-17T02:37:56.652Z,985.05
2022-11-17T02:38:56.644Z,985.03
2022-11-17T02:39:56.629Z,985.01
2022-11-17T02:40:56.635Z,984.97
2022-11-17T02:41:56.640Z,984.97
2022-11-17T02:42:56.583Z,984.95
2022-11-17T02:43:56.588Z,984.93
2022-11-17T02:44:56.584Z,984.89
2022-11-17T02:45:56.571Z,984.91
2022-11-17T02:46:56.581Z,984.89
2022-11-17T02:47:56.552Z,984.86
2022-11-17T02:48:56.557Z,984.89
2022-11-17T02:49:56.538Z,984.90
2022-11-17T02:50:56.507Z,984.91
2022-11-17T02:51:56.516Z,984.88
2022-11-17T02:52:56.571Z,984.91
2022-11-17T02:53:56.508Z,984.90
2022-11-17T02:54:56.462Z,984.88
2022-11-17T02:55:56.465Z,984.87
2022-11-17T02:56:56.480Z,984.82
2022-11-17T02:57:56.449Z,984.85
2022-11-17T02:58:56.431Z,984.86
2022-11-17T02:59:56.437Z,984.81
2022-11-17T03:00:56.401Z,984.79
2022-11-17T03:01:56.442Z,984.76
2022-11-17T03:02:56.394Z,984.75
2022-11-17T03:03:56.391Z,984.74
2022-11-17T03:04:56.372Z,984.74
2022-11-17T03:05:56.381Z,984.72
2022-11-17T03:06:56.421Z,984.74
2022-11-17T03:07:56.351Z,984.71
2022-11-17T03:08:56.331Z,984.69
2022-11-17T03:09:56.320Z,984.67
2022-11-17T03:10:56.327Z,984.65
2022-11-17T03:11:56.299Z,984.62
2022-11-17T03:12:56.281Z,984.61
2022-11-17T03:13:56.278Z,984.60
2022-11-17T03:14:56.256Z,984.53
2022-11-17T03:15:56.265Z,984.53
2022-11-17T03:16:56.252Z,984.48
2022-11-17T03:17:56.236Z,984.46
2022-11-17T03:18:56.231Z,984.47
2022-11-17T03:19:56.221Z,984.47
2022-11-17T03:20:56.193Z,984.46
2022-11-17T03:21:56.197Z,984.47
2022-11-17T03:22:56.188Z,984.47
2022-11-17T03:23:56.184Z,984.50
2022-11-17T03:24:56.156Z,984.47
2022-11-17T03:25:56.155Z,984.42
2022-11-17T03:26:56.144Z,984.44
2022-11-17T03:27:56.136Z,984.38
2022-11-17T03:28:56.125Z,984.39
2022-11-17T03:29:56.113Z,984.37
2022-11-17T03:30:56.099Z,984.34
2022-11-17T03:31:56.095Z,984.29
2022-11-17T03:32:56.079Z,984.30
2022-11-17T03:33:56.100Z,984.26
2022-11-17T03:34:56.070Z,984.29
2022-11-17T03:35:56.062Z,984.26
2022-11-17T03:36:56.032Z,984.26
2022-11-17T03:37:56.043Z,984.24
2022-11-17T03:38:56.003Z,984.24
2022-11-17T03:39:56.026Z,984.24
2022-11-17T03:40:56.006Z,984.31
2022-11-17T03:41:55.991Z,984.26
2022-11-17T03:42:55.981Z,984.22
2022-11-17T03:43:55.971Z,984.21
2022-11-17T03:44:55.956Z,984.19
2022-11-17T03:45:55.947Z,984.18
2022-11-17T03:46:55.958Z,984.16
2022-11-17T03:47:55.926Z,984.16
2022-11-17T03:48:55.915Z,984.15
2022-11-17T03:49:55.892Z,984.16
2022-11-17T03:50:55.907Z,984.16
2022-11-17T03:51:55.866Z,984.07
2022-11-17T03:52:55.911Z,984.10
2022-11-17T03:53:55.862Z,984.06
2022-11-17T03:54:55.872Z,984.04
2022-11-17T03:55:55.827Z,984.03
2022-11-17T03:56:55.836Z,984.02
2022-11-17T03:57:55.815Z,984.01
2022-11-17T03:58:55.836Z,984.03
2022-11-17T03:59:55.796Z,983.96
2022-11-17T04:00:55.803Z,983.92
2022-11-17T04:01:55.891Z,983.92
2022-11-17T04:02:55.776Z,983.91
2022-11-17T04:03:55.748Z,983.91
2022-11-17T04:04:55.778Z,983.91
2022-11-17T04:05:55.736Z,983.87
2022-11-17T04:06:55.789Z,983.88
2022-11-17T04:07:55.712Z,983.88
2022-11-17T04:08:55.710Z,983.84
2022-11-17T04:09:55.693Z,983.84
2022-11-17T04:10:55.708Z,983.79
2022-11-17T04:11:55.665Z,983.80
2022-11-17T04:12:55.671Z,983.75
2022-11-17T04:13:55.644Z,983.73
2022-11-17T04:14:55.647Z,983.73
2022-11-17T04:15:55.626Z,983.67
2022-11-17T04:16:55.670Z,983.71
2022-11-17T04:17:55.604Z,983.71
2022-11-17T04:18:58.941Z,983.71
2022-11-17T04:19:55.586Z,983.68
2022-11-17T04:20:55.591Z,983.70
2022-11-17T04:21:55.584Z,983.66
2022-11-17T04:22:55.591Z,983.68
2022-11-17T04:23:55.539Z,983.68
2022-11-17T04:24:55.546Z,983.69
2022-11-17T04:25:55.532Z,983.69
2022-11-17T04:26:55.521Z,983.65
2022-11-17T04:27:55.512Z,983.57
2022-11-17T04:28:55.512Z,983.61
2022-11-17T04:29:55.489Z,983.61
2022-11-17T04:30:55.464Z,983.62
2022-11-17T04:31:55.492Z,983.61
2022-11-17T04:32:55.444Z,983.59
2022-11-17T04:33:55.455Z,983.60
2022-11-17T04:34:55.454Z,983.62
2022-11-17T04:35:55.428Z,983.57
2022-11-17T04:36:55.420Z,983.58
2022-11-17T04:37:55.421Z,983.59
2022-11-17T04:38:55.388Z,983.59
2022-11-17T04:39:55.394Z,983.54
2022-11-17T04:40:55.405Z,983.53
2022-11-17T04:41:55.367Z,983.54
2022-11-17T04:42:55.347Z,983.52
2022-11-17T04:43:55.347Z,983.52
2022-11-17T04:44:55.327Z,983.53
2022-11-17T04:45:55.326Z,983.52
2022-11-17T04:46:55.358Z,983.51
2022-11-17T04:47:55.303Z,983.52
2022-11-17T04:48:55.289Z,983.54
2022-11-17T04:49:55.286Z,983.54
2022-11-17T04:50:55.264Z,983.52
2022-11-17T04:51:55.259Z,983.55
2022-11-17T04:52:55.252Z,983.53
2022-11-17T04:53:55.241Z,983.54
2022-11-17T04:54:55.238Z,983.52
2022-11-17T04:55:55.223Z,983.47
2022-11-17T04:56:55.210Z,983.45
2022-11-17T04:57:55.220Z,983.45
2022-11-17T04:58:55.186Z,983.45
2022-11-17T04:59:55.179Z,983.40
2022-11-17T05:00:55.164Z,983.44
2022-11-17T05:01:55.291Z,983.39
2022-11-17T05:02:55.149Z,983.41
2022-11-17T05:03:55.138Z,983.37
2022-11-17T05:04:55.119Z,983.29
2022-11-17T05:05:55.118Z,983.33
2022-11-17T05:06:55.108Z,983.35
2022-11-17T05:07:55.113Z,983.36
2022-11-17T05:08:55.070Z,983.32
2022-11-17T05:09:55.080Z,983.24
2022-11-17T05:10:55.184Z,983.28
2022-11-17T05:11:55.054Z,983.25
2022-11-17T05:12:55.054Z,983.22
2022-11-17T05:13:55.037Z,983.23
2022-11-17T05:14:55.016Z,983.18
2022-11-17T05:15:55.038Z,983.16
2022-11-17T05:16:54.991Z,983.13
2022-11-17T05:17:55.013Z,983.16
2022-11-17T05:18:54.968Z,983.11
2022-11-17T05:19:54.972Z,983.07
2022-11-17T05:20:54.954Z,983.00
2022-11-17T05:21:54.958Z,982.95
2022-11-17T05:22:54.944Z,982.88
2022-11-17T05:23:54.949Z,982.93
2022-11-17T05:24:54.905Z,983.04
2022-11-17T05:25:54.914Z,983.12
2022-11-17T05:26:54.888Z,983.13
2022-11-17T05:27:54.897Z,983.13
2022-11-17T05:28:54.881Z,983.15
2022-11-17T05:29:54.873Z,983.17
2022-11-17T05:30:54.844Z,983.17
2022-11-17T05:31:54.853Z,983.16
2022-11-17T05:32:54.831Z,983.19
2022-11-17T05:33:54.850Z,983.16
2022-11-17T05:34:54.804Z,983.16
2022-11-17T05:35:54.812Z,983.14
2022-11-17T05:36:54.785Z,983.10
2022-11-17T05:37:54.795Z,983.01
2022-11-17T05:38:54.766Z,983.02
2022-11-17T05:39:54.780Z,983.02
2022-11-17T05:40:54.743Z,982.98
2022-11-17T05:41:54.747Z,983.02
2022-11-17T05:42:57.145Z,982.99
2022-11-17T05:43:54.726Z,983.06
2022-11-17T05:44:54.718Z,983.04
2022-11-17T05:45:54.707Z,983.06
2022-11-17T05:46:54.681Z,983.03
2022-11-17T05:47:54.687Z,982.99
2022-11-17T05:48:54.667Z,982.98
2022-11-17T05:49:54.701Z,982.97
2022-11-17T05:50:54.639Z,982.97
2022-11-17T05:51:54.642Z,982.97
2022-11-17T05:52:54.621Z,982.96
2022-11-17T05:53:54.662Z,982.92
2022-11-17T05:54:54.601Z,982.87
2022-11-17T05:55:54.644Z,982.86
2022-11-17T05:56:54.582Z,982.76
2022-11-17T05:57:54.588Z,982.80
2022-11-17T05:58:54.566Z,982.81
2022-11-17T05:59:54.561Z,982.75
2022-11-17T06:00:54.549Z,982.71
2022-11-17T06:01:54.562Z,982.66
2022-11-17T06:02:54.513Z,982.63
2022-11-17T06:03:54.596Z,982.69
2022-11-17T06:04:54.587Z,982.69
2022-11-17T06:05:54.522Z,982.66
2022-11-17T06:06:54.551Z,982.62
2022-11-17T06:07:54.478Z,982.61
2022-11-17T06:08:54.453Z,982.65
2022-11-17T06:09:54.461Z,982.62
2022-11-17T06:10:54.463Z,982.61
2022-11-17T06:11:54.446Z,982.56
2022-11-17T06:12:54.409Z,982.52
2022-11-17T06:13:54.415Z,982.50
2022-11-17T06:14:54.397Z,982.45
2022-11-17T06:15:54.391Z,982.42
2022-11-17T06:16:54.398Z,982.42
2022-11-17T06:17:54.375Z,982.39
2022-11-17T06:18:54.361Z,982.36
2022-11-17T06:19:54.358Z,982.39
2022-11-17T06:20:54.329Z,982.40
2022-11-17T06:22:11.793Z,982.39
2022-11-17T06:22:54.313Z,982.38
2022-11-17T06:23:54.308Z,982.45
2022-11-17T06:24:54.287Z,982.39
2022-11-17T06:25:54.296Z,982.41
2022-11-17T06:26:54.276Z,982.45
2022-11-17T06:27:54.309Z,982.46
2022-11-17T06:28:54.246Z,982.43
2022-11-17T06:29:54.252Z,982.48
2022-11-17T06:30:54.238Z,982.44
2022-11-17T06:31:54.227Z,982.45
2022-11-17T06:32:54.223Z,982.45
2022-11-17T06:33:54.221Z,982.46
2022-11-17T06:34:56.347Z,982.43
2022-11-17T06:35:54.186Z,982.45
2022-11-17T06:36:54.190Z,982.46
2022-11-17T06:37:54.183Z,982.45
2022-11-17T06:38:54.147Z,982.46
2022-11-17T06:39:54.154Z,982.49
2022-11-17T06:40:54.125Z,982.51
2022-11-17T06:41:54.142Z,982.53
2022-11-17T06:42:54.123Z,982.51
2022-11-17T06:43:54.131Z,982.53
2022-11-17T06:44:54.084Z,982.49
2022-11-17T06:45:54.159Z,982.51
2022-11-17T06:46:54.066Z,982.58
2022-11-17T06:47:54.068Z,982.55
2022-11-17T06:48:54.068Z,982.58
2022-11-17T06:49:54.068Z,982.56
2022-11-17T06:50:54.022Z,982.54
2022-11-17T06:51:54.024Z,982.52
2022-11-17T06:52:53.999Z,982.51
2022-11-17T06:53:54.031Z,982.50
2022-11-17T06:54:53.981Z,982.50
2022-11-17T06:55:54.001Z,982.53
2022-11-17T06:56:53.968Z,982.55
2022-11-17T06:57:53.970Z,982.57
2022-11-17T06:58:53.942Z,982.55
2022-11-17T06:59:53.961Z,982.55
2022-11-17T07:00:53.985Z,982.56
2022-11-17T07:01:53.957Z,982.59
2022-11-17T07:02:53.910Z,982.58
2022-11-17T07:03:53.910Z,982.59
2022-11-17T07:04:53.902Z,982.59
2022-11-17T07:05:53.900Z,982.58
2022-11-17T07:06:53.889Z,982.57
2022-11-17T07:07:53.882Z,982.59
2022-11-17T07:08:53.850Z,982.61
2022-11-17T07:09:53.893Z,982.60
2022-11-17T07:10:53.818Z,982.59
2022-11-17T07:11:53.827Z,982.61
2022-11-17T07:12:53.804Z,982.62
2022-11-17T07:13:53.813Z,982.64
2022-11-17T07:14:53.778Z,982.64
2022-11-17T07:15:53.801Z,982.68
2022-11-17T07:16:53.755Z,982.66
2022-11-17T07:17:53.762Z,982.65
2022-11-17T07:18:53.764Z,982.68
2022-11-17T07:19:53.744Z,982.70
2022-11-17T07:20:54.078Z,982.71
2022-11-17T07:21:53.726Z,982.73
2022-11-17T07:22:53.693Z,982.74
2022-11-17T07:23:53.774Z,982.74
2022-11-17T07:24:53.671Z,982.74
2022-11-17T07:25:53.703Z,982.73
2022-11-17T07:26:53.660Z,982.69
2022-11-17T07:27:53.659Z,982.68
2022-11-17T07:28:53.630Z,982.65
2022-11-17T07:29:53.644Z,982.65
2022-11-17T07:30:53.609Z,982.68
2022-11-17T07:31:53.631Z,982.68
2022-11-17T07:32:54.958Z,982.69
2022-11-17T07:33:53.600Z,982.69
2022-11-17T07:34:53.568Z,982.71
2022-11-17T07:35:53.596Z,982.73
2022-11-17T07:36:53.593Z,982.73
2022-11-17T07:37:53.560Z,982.75
2022-11-17T07:38:53.526Z,982.72
2022-11-17T07:39:53.548Z,982.73
2022-11-17T07:40:53.509Z,982.74
2022-11-17T07:41:53.532Z,982.76
2022-11-17T07:42:53.494Z,982.78
2022-11-17T07:43:53.494Z,982.77
2022-11-17T07:44:53.469Z,982.77
2022-11-17T07:45:53.479Z,982.75
2022-11-17T07:46:53.447Z,982.78
2022-11-17T07:47:53.466Z,982.76
2022-11-17T07:48:53.419Z,982.78
2022-11-17T07:49:53.434Z,982.77
2022-11-17T07:50:53.399Z,982.76
2022-11-17T07:51:53.411Z,982.77
2022-11-17T07:52:53.390Z,982.79
2022-11-17T07:53:53.391Z,982.76
2022-11-17T07:54:53.378Z,982.79
2022-11-17T07:55:53.372Z,982.78
2022-11-17T07:56:53.352Z,982.75
2022-11-17T07:57:53.368Z,982.77
2022-11-17T07:58:53.322Z,982.79
2022-11-17T07:59:53.337Z,982.81
2022-11-17T08:00:53.397Z,982.82
2022-11-17T08:01:53.286Z,982.82
2022-11-17T08:02:53.316Z,982.82
2022-11-17T08:03:53.336Z,982.81
2022-11-17T08:04:53.277Z,982.82
2022-11-17T08:05:53.248Z,982.81
2022-11-17T08:06:53.323Z,982.82
2022-11-17T08:07:53.223Z,982.82
2022-11-17T08:08:53.267Z,982.82
2022-11-17T08:09:53.207Z,982.81
2022-11-17T08:10:53.221Z,982.82
2022-11-17T08:11:53.196Z,982.85
2022-11-17T08:12:53.200Z,982.88
2022-11-17T08:13:53.189Z,982.90
2022-11-17T08:14:53.174Z,982.91
2022-11-17T08:15:53.154Z,982.93
2022-11-17T08:16:53.158Z,982.94
2022-11-17T08:17:53.129Z,982.95
2022-11-17T08:18:53.181Z,982.95
2022-11-17T08:19:53.111Z,982.94
2022-11-17T08:20:53.145Z,983.00
2022-11-17T08:21:53.093Z,982.99
2022-11-17T08:22:53.092Z,982.98
2022-11-17T08:23:53.063Z,983.03
2022-11-17T08:24:53.082Z,983.04
2022-11-17T08:25:53.069Z,983.05
2022-11-17T08:26:53.051Z,983.06
2022-11-17T08:27:53.029Z,983.07
2022-11-17T08:28:58.129Z,983.04
2022-11-17T08:29:53.018Z,983.09
2022-11-17T08:30:53.017Z,983.12
2022-11-17T08:31:52.984Z,983.07
2022-11-17T08:32:52.990Z,983.05
2022-11-17T08:33:52.981Z,983.05
2022-11-17T08:34:53.015Z,983.06
2022-11-17T08:35:52.935Z,983.06
2022-11-17T08:36:52.950Z,983.03
2022-11-17T08:37:52.918Z,983.04
2022-11-17T08:38:52.934Z,983.04
2022-11-17T08:39:52.908Z,983.02
2022-11-17T08:40:52.925Z,983.02
2022-11-17T08:41:52.872Z,983.02
2022-11-17T08:42:57.498Z,983.00
2022-11-17T08:43:52.871Z,983.04
2022-11-17T08:44:52.864Z,983.03
2022-11-17T08:45:52.854Z,983.02
2022-11-17T08:46:52.851Z,983.02
2022-11-17T08:47:52.809Z,983.03
2022-11-17T08:48:56.924Z,983.04
2022-11-17T08:49:52.795Z,983.01
2022-11-17T08:50:52.832Z,982.99
2022-11-17T08:51:52.773Z,983.01
2022-11-17T08:52:52.784Z,983.02
2022-11-17T08:53:52.763Z,983.04
2022-11-17T08:54:52.801Z,983.03
2022-11-17T08:55:52.904Z,983.09
2022-11-17T08:56:52.765Z,983.10
2022-11-17T08:57:52.707Z,983.10
2022-11-17T08:58:52.728Z,983.11
2022-11-17T08:59:52.687Z,983.14
2022-11-17T09:00:52.772Z,983.13
2022-11-17T09:01:52.684Z,983.13
2022-11-17T09:02:52.679Z,983.16
2022-11-17T09:03:52.644Z,983.12
2022-11-17T09:04:52.682Z,983.17
2022-11-17T09:05:52.654Z,983.20
2022-11-17T09:06:52.731Z,983.17
2022-11-17T09:07:52.808Z,983.22
2022-11-17T09:08:52.684Z,983.23
2022-11-17T09:09:52.584Z,983.17
2022-11-17T09:10:52.620Z,983.20
2022-11-17T09:11:52.568Z,983.25
2022-11-17T09:12:52.586Z,983.27
2022-11-17T09:13:52.584Z,983.29
2022-11-17T09:14:52.563Z,983.28
2022-11-17T09:15:52.526Z,983.32
2022-11-17T09:16:52.551Z,983.32
2022-11-17T09:17:52.516Z,983.31
2022-11-17T09:18:52.528Z,983.37
2022-11-17T09:19:52.481Z,983.37
2022-11-17T09:20:52.519Z,983.40
2022-11-17T09:21:52.469Z,983.41
2022-11-17T09:22:52.490Z,983.42
2022-11-17T09:23:52.464Z,983.43
2022-11-17T09:24:52.449Z,983.46
2022-11-17T09:25:52.426Z,983.47
2022-11-17T09:26:52.432Z,983.50
2022-11-17T09:27:52.395Z,983.53
2022-11-17T09:28:52.428Z,983.53
2022-11-17T09:29:52.382Z,983.57
2022-11-17T09:30:52.398Z,983.58
2022-11-17T09:31:52.408Z,983.59
2022-11-17T09:32:52.370Z,983.62
2022-11-17T09:33:52.447Z,983.66
2022-11-17T09:34:52.455Z,983.64
2022-11-17T09:35:52.312Z,983.63
2022-11-17T09:36:52.335Z,983.70
2022-11-17T09:37:52.295Z,983.67
2022-11-17T09:38:52.327Z,983.66
2022-11-17T09:39:52.273Z,983.67
2022-11-17T09:40:52.321Z,983.68
2022-11-17T09:41:52.252Z,983.69
2022-11-17T09:42:52.265Z,983.67
2022-11-17T09:43:52.265Z,983.65
2022-11-17T09:44:52.246Z,983.65
2022-11-17T09:45:52.214Z,983.68
2022-11-17T09:46:52.224Z,983.70
2022-11-17T09:48:02.227Z,983.70
2022-11-17T09:48:52.305Z,983.72
2022-11-17T09:49:57.011Z,983.75
2022-11-17T09:50:52.194Z,983.77
2022-11-17T09:51:52.155Z,983.79
2022-11-17T09:52:52.166Z,983.81
2022-11-17T09:53:52.132Z,983.81
2022-11-17T09:54:52.180Z,983.83
2022-11-17T09:55:52.107Z,983.83
2022-11-17T09:56:52.161Z,983.85
2022-11-17T09:57:52.088Z,983.83
2022-11-17T09:58:52.114Z,983.83
2022-11-17T09:59:52.084Z,983.85
2022-11-17T10:00:52.078Z,983.87
2022-11-17T10:01:52.092Z,983.90
2022-11-17T10:02:52.067Z,983.87
2022-11-17T10:03:52.026Z,983.87
2022-11-17T10:04:52.051Z,983.90
2022-11-17T10:05:52.017Z,983.92
2022-11-17T10:06:52.096Z,983.91
2022-11-17T10:07:51.985Z,983.93
2022-11-17T10:08:52.017Z,983.97
2022-11-17T10:09:51.975Z,983.99
2022-11-17T10:10:51.990Z,984.02
2022-11-17T10:11:51.947Z,984.01
2022-11-17T10:12:51.957Z,983.99
2022-11-17T10:13:51.922Z,984.00
2022-11-17T10:14:51.938Z,984.00
2022-11-17T10:15:51.921Z,983.98
2022-11-17T10:16:51.920Z,983.97
2022-11-17T10:17:51.882Z,983.97
2022-11-17T10:18:51.914Z,983.95
2022-11-17T10:19:51.867Z,983.94
2022-11-17T10:20:51.878Z,983.95
2022-11-17T10:21:51.857Z,983.94
2022-11-17T10:22:51.857Z,983.93
2022-11-17T10:23:52.018Z,983.93
2022-11-17T10:24:51.849Z,983.93
2022-11-17T10:25:51.801Z,983.92
2022-11-17T10:26:51.842Z,983.90
2022-11-17T10:27:51.830Z,983.92
2022-11-17T10:28:51.792Z,983.91
2022-11-17T10:29:51.758Z,983.91
2022-11-17T10:30:51.772Z,983.91
2022-11-17T10:31:51.756Z,983.90
2022-11-17T10:32:51.752Z,983.92
2022-11-17T10:33:51.778Z,983.94
2022-11-17T10:34:51.730Z,983.96
2022-11-17T10:35:51.703Z,983.97
2022-11-17T10:36:51.717Z,983.97
2022-11-17T10:37:51.702Z,983.98
2022-11-17T10:38:51.691Z,983.98
2022-11-17T10:39:51.654Z,984.00
2022-11-17T10:40:51.684Z,984.02
2022-11-17T10:41:51.639Z,984.03
2022-11-17T10:42:51.758Z,984.04
2022-11-17T10:43:51.634Z,984.04
2022-11-17T10:44:51.625Z,984.04
2022-11-17T10:45:51.591Z,984.05
2022-11-17T10:46:53.149Z,984.07
2022-11-17T10:47:51.590Z,984.07
2022-11-17T10:48:51.587Z,984.07
2022-11-17T10:49:51.553Z,984.08
2022-11-17T10:50:51.564Z,984.10
2022-11-17T10:51:51.533Z,984.10
2022-11-17T10:52:51.543Z,984.10
2022-11-17T10:53:51.537Z,984.10
2022-11-17T10:54:51.522Z,984.10
2022-11-17T10:55:51.488Z,984.09
2022-11-17T10:56:51.513Z,984.09
2022-11-17T10:57:51.467Z,984.11
2022-11-17T10:58:51.495Z,984.10
2022-11-17T10:59:56.435Z,984.11
2022-11-17T11:00:51.504Z,984.11
2022-11-17T11:01:51.451Z,984.10
2022-11-17T11:02:51.447Z,984.11
2022-11-17T11:03:51.428Z,984.11
2022-11-17T11:04:51.425Z,984.12
2022-11-17T11:05:51.393Z,984.12
2022-11-17T11:06:51.461Z,984.13
2022-11-17T11:07:51.364Z,984.13
2022-11-17T11:08:51.376Z,984.12
2022-11-17T11:09:51.403Z,984.12
2022-11-17T11:10:51.524Z,984.11
2022-11-17T11:11:51.339Z,984.12
2022-11-17T11:12:51.333Z,984.10
2022-11-17T11:13:51.304Z,984.09
2022-11-17T11:14:51.326Z,984.10
2022-11-17T11:15:51.288Z,984.08
2022-11-17T11:16:51.303Z,984.08
2022-11-17T11:17:51.267Z,984.09
2022-11-17T11:18:51.272Z,984.09
2022-11-17T11:19:51.256Z,984.10
2022-11-17T11:20:51.256Z,984.09
2022-11-17T11:21:51.219Z,984.09
2022-11-17T11:22:51.233Z,984.08
2022-11-17T11:23:51.201Z,984.06
2022-11-17T11:24:51.210Z,984.06
2022-11-17T11:25:51.189Z,984.05
2022-11-17T11:26:51.200Z,984.05
2022-11-17T11:27:51.157Z,984.06
2022-11-17T11:28:54.650Z,984.08
2022-11-17T11:29:51.147Z,984.08
2022-11-17T11:30:51.160Z,984.10
2022-11-17T11:31:51.114Z,984.10
2022-11-17T11:32:51.132Z,984.11
2022-11-17T11:33:51.097Z,984.13
2022-11-17T11:34:51.107Z,984.13
2022-11-17T11:35:51.100Z,984.15
2022-11-17T11:36:51.112Z,984.14
2022-11-17T11:37:51.063Z,984.14
2022-11-17T11:38:51.070Z,984.16
2022-11-17T11:39:51.036Z,984.17
2022-11-17T11:40:51.053Z,984.18
2022-11-17T11:41:51.029Z,984.20
2022-11-17T11:42:51.032Z,984.20
2022-11-17T11:43:50.997Z,984.21
2022-11-17T11:44:51.022Z,984.22
2022-11-17T11:45:50.977Z,984.23
2022-11-17T11:46:50.994Z,984.24
2022-11-17T11:47:50.979Z,984.26
2022-11-17T11:48:50.965Z,984.27
2022-11-17T11:49:50.928Z,984.27
2022-11-17T11:50:50.938Z,984.26
2022-11-17T11:51:50.955Z,984.28
2022-11-17T11:52:50.938Z,984.29
2022-11-17T11:53:50.892Z,984.30
2022-11-17T11:54:51.359Z,984.32
2022-11-17T11:55:50.884Z,984.34
2022-11-17T11:56:50.881Z,984.33
2022-11-17T11:57:50.856Z,984.33
2022-11-17T11:58:50.869Z,984.32
2022-11-17T11:59:50.843Z,984.35
2022-11-17T12:00:50.836Z,984.36
2022-11-17T12:01:50.903Z,984.36
2022-11-17T12:02:50.943Z,984.36
2022-11-17T12:03:50.792Z,984.37
2022-11-17T12:04:50.800Z,984.38
2022-11-17T12:05:50.768Z,984.39
2022-11-17T12:06:50.837Z,984.41
2022-11-17T12:07:50.769Z,984.43
2022-11-17T12:08:50.852Z,984.44
2022-11-17T12:09:50.746Z,984.47
2022-11-17T12:10:50.743Z,984.51
2022-11-17T12:11:50.702Z,984.53
2022-11-17T12:12:50.724Z,984.54
2022-11-17T12:13:54.195Z,984.56
2022-11-17T12:14:50.721Z,984.55
2022-11-17T12:15:50.662Z,984.58
2022-11-17T12:16:50.661Z,984.54
2022-11-17T12:17:50.660Z,984.54
2022-11-17T12:18:50.737Z,984.58
2022-11-17T12:19:50.648Z,984.56
2022-11-17T12:20:50.610Z,984.56
2022-11-17T12:21:50.624Z,984.57
2022-11-17T12:22:50.587Z,984.57
2022-11-17T12:23:50.630Z,984.60
2022-11-17T12:24:50.568Z,984.62
2022-11-17T12:25:53.726Z,984.62
2022-11-17T12:26:50.551Z,984.63
2022-11-17T12:27:50.567Z,984.62
2022-11-17T12:28:50.522Z,984.60